createdAt,value
2022-12-15T00:01:04.246Z,22.07
2022-12-15T00:03:32.128Z,22.09
2022-12-15T00:06:00.964Z,22.12
2022-12-15T00:08:28.815Z,22.11
2022-12-15T00:10:56.476Z,22.08
2022-12-15T00:13:23.928Z,22.03
2022-12-15T00:15:51.496Z,22.08
2022-12-15T00:18:20.993Z,22.08
2022-12-15T00:20:48.894Z,21.93
2022-12-15T00:23:16.305Z,22.09
2022-12-15T00:25:44.813Z,22.03
2022-12-15T00:28:12.253Z,22.04
2022-12-15T00:30:40.021Z,22.08
2022-12-15T00:33:09.775Z,22.09
2022-12-15T00:35:38.254Z,22.08
2022-12-15T00:38:09.162Z,22.04
2022-12-15T00:40:36.621Z,22.08
2022-12-15T00:43:04.374Z,22.00
2022-12-15T00:45:32.036Z,22.03
2022-12-15T00:47:59.456Z,22.01
2022-12-15T00:50:26.866Z,22.07
2022-12-15T00:52:56.274Z,22.01
2022-12-15T00:55:23.735Z,22.00
2022-12-15T00:57:53.345Z,22.05
2022-12-15T01:00:21.184Z,22.06
2022-12-15T01:02:48.748Z,22.00
2022-12-15T01:05:16.414Z,22.06
2022-12-15T01:07:43.898Z,22.00
2022-12-15T01:10:19.054Z,21.98
2022-12-15T01:12:47.258Z,22.07
2022-12-15T01:15:15.083Z,21.93
2022-12-15T01:17:42.510Z,22.02
2022-12-15T01:20:11.194Z,22.09
2022-12-15T01:22:39.108Z,22.01
2022-12-15T01:25:08.148Z,21.88
2022-12-15T01:27:37.546Z,22.03
2022-12-15T01:30:06.993Z,22.01
2022-12-15T01:32:35.081Z,22.05
2022-12-15T01:35:02.551Z,22.04
2022-12-15T01:37:29.999Z,21.93
2022-12-15T01:39:57.443Z,21.96
2022-12-15T01:42:24.895Z,22.04
2022-12-15T01:44:54.228Z,21.96
2022-12-15T01:47:25.876Z,22.04
2022-12-15T01:49:54.962Z,21.96
2022-12-15T01:52:22.364Z,22.06
2022-12-15T01:54:54.075Z,22.04
2022-12-15T01:57:27.347Z,22.03
2022-12-15T02:00:01.640Z,22.06
2022-12-15T02:02:33.397Z,21.97
2022-12-15T02:05:07.138Z,22.05
2022-12-15T02:07:35.776Z,22.02
2022-12-15T02:10:06.294Z,22.07
2022-12-15T02:12:40.921Z,22.00
2022-12-15T02:15:19.070Z,21.96
2022-12-15T02:18:00.430Z,21.97
2022-12-15T02:20:50.923Z,22.06
2022-12-15T02:23:52.817Z,22.07
2022-12-15T02:26:45.217Z,22.00
2022-12-15T02:29:38.158Z,22.04
2022-12-15T02:32:09.852Z,22.05
2022-12-15T02:34:43.075Z,22.06
2022-12-15T02:37:15.164Z,22.07
2022-12-15T02:39:43.029Z,22.00
2022-12-15T02:42:11.243Z,22.06
2022-12-15T02:44:42.577Z,22.08
2022-12-15T02:47:23.127Z,22.01
2022-12-15T02:50:09.795Z,22.07
2022-12-15T02:52:50.482Z,21.94
2022-12-15T02:55:27.420Z,22.02
2022-12-15T02:58:01.417Z,22.04
2022-12-15T03:00:31.497Z,21.87
2022-12-15T03:03:00.924Z,22.01
2022-12-15T03:05:31.865Z,21.51
2022-12-15T03:07:59.385Z,21.26
2022-12-15T03:10:27.132Z,21.55
2022-12-15T03:12:54.660Z,21.58
2022-12-15T03:15:22.599Z,21.57
2022-12-15T03:17:50.067Z,21.57
2022-12-15T03:20:18.986Z,21.62
2022-12-15T03:22:47.058Z,21.64
2022-12-15T03:25:14.608Z,21.57
2022-12-15T03:27:42.021Z,21.67
2022-12-15T03:30:10.552Z,21.67
2022-12-15T03:32:38.066Z,21.62
2022-12-15T03:35:06.889Z,21.63
2022-12-15T03:37:35.812Z,21.85
2022-12-15T03:40:03.287Z,22.07
2022-12-15T03:42:30.711Z,22.02
2022-12-15T03:44:58.198Z,22.02
2022-12-15T03:47:25.662Z,21.94
2022-12-15T03:49:53.108Z,21.89
2022-12-15T03:52:20.574Z,21.84
2022-12-15T03:54:49.504Z,21.86
2022-12-15T03:57:16.929Z,21.86
2022-12-15T03:59:44.694Z,21.85
2022-12-15T04:02:12.463Z,21.85
2022-12-15T04:04:40.154Z,21.88
2022-12-15T04:07:07.626Z,21.83
2022-12-15T04:09:36.006Z,21.87
2022-12-15T04:12:05.270Z,21.85
2022-12-15T04:14:33.073Z,21.87
2022-12-15T04:17:00.534Z,21.84
2022-12-15T04:19:28.082Z,21.89
2022-12-15T04:21:55.534Z,21.87
2022-12-15T04:24:22.963Z,21.88
2022-12-15T04:26:50.482Z,21.83
2022-12-15T04:29:19.355Z,21.92
2022-12-15T04:31:46.797Z,21.90
2022-12-15T04:34:21.279Z,21.90
2022-12-15T04:36:52.080Z,21.86
2022-12-15T04:39:19.587Z,21.86
2022-12-15T04:41:47.139Z,21.81
2022-12-15T04:44:14.716Z,21.84
2022-12-15T04:46:43.654Z,21.79
2022-12-15T04:49:11.143Z,21.80
2022-12-15T04:51:38.620Z,21.88
2022-12-15T04:54:06.075Z,21.79
2022-12-15T04:56:33.498Z,21.82
2022-12-15T04:59:01.247Z,21.88
2022-12-15T05:01:28.953Z,21.85
2022-12-15T05:03:58.076Z,21.81
2022-12-15T05:06:25.606Z,21.85
2022-12-15T05:08:53.136Z,21.79
2022-12-15T05:11:20.913Z,21.74
2022-12-15T05:13:48.833Z,21.86
2022-12-15T05:16:16.894Z,21.87
2022-12-15T05:18:44.907Z,21.81
2022-12-15T05:21:13.795Z,21.84
2022-12-15T05:23:41.393Z,21.83
2022-12-15T05:26:09.166Z,21.81
2022-12-15T05:28:36.598Z,21.81
2022-12-15T05:31:06.526Z,21.76
2022-12-15T05:33:34.226Z,21.71
2022-12-15T05:36:01.843Z,21.81
2022-12-15T05:38:30.706Z,21.80
2022-12-15T05:40:58.543Z,21.72
2022-12-15T05:43:26.944Z,21.73
2022-12-15T05:45:54.560Z,21.65
2022-12-15T05:48:22.113Z,21.34
2022-12-15T05:50:49.723Z,21.34
2022-12-15T05:53:17.241Z,21.44
2022-12-15T05:55:46.185Z,21.45
2022-12-15T05:58:13.637Z,21.55
2022-12-15T06:00:41.083Z,21.38
2022-12-15T06:03:08.637Z,21.51
2022-12-15T06:05:36.650Z,21.54
2022-12-15T06:08:04.267Z,21.67
2022-12-15T06:10:31.684Z,21.76
2022-12-15T06:13:00.622Z,21.73
2022-12-15T06:15:28.085Z,21.80
2022-12-15T06:17:55.523Z,21.80
2022-12-15T06:20:23.112Z,21.70
2022-12-15T06:22:50.508Z,21.90
2022-12-15T06:25:18.009Z,21.94
2022-12-15T06:27:45.500Z,21.84
2022-12-15T06:30:14.794Z,21.85
2022-12-15T06:32:42.342Z,21.99
2022-12-15T06:35:10.066Z,21.87
2022-12-15T06:37:38.013Z,21.90
2022-12-15T06:40:06.662Z,21.91
2022-12-15T06:42:34.254Z,21.80
2022-12-15T06:45:01.792Z,21.91
2022-12-15T06:47:31.275Z,22.00
2022-12-15T06:49:58.728Z,21.96
2022-12-15T06:52:26.149Z,22.00
2022-12-15T06:54:53.606Z,21.98
2022-12-15T06:57:21.151Z,22.07
2022-12-15T06:59:48.660Z,22.00
2022-12-15T07:02:17.230Z,22.00
2022-12-15T07:04:46.518Z,21.81
2022-12-15T07:07:13.950Z,21.96
2022-12-15T07:09:41.425Z,21.89
2022-12-15T07:12:10.488Z,21.87
2022-12-15T07:14:37.915Z,21.93
2022-12-15T07:17:05.483Z,21.91
2022-12-15T07:19:33.071Z,21.88
2022-12-15T07:22:02.007Z,21.83
2022-12-15T07:24:29.536Z,21.80
2022-12-15T07:26:57.173Z,21.81
2022-12-15T07:29:24.609Z,21.83
2022-12-15T07:31:53.114Z,21.94
2022-12-15T07:34:20.998Z,21.89
2022-12-15T07:36:52.131Z,21.77
2022-12-15T07:39:21.786Z,21.84
2022-12-15T07:41:49.211Z,21.82
2022-12-15T07:44:17.100Z,21.88
2022-12-15T07:46:44.577Z,21.81
2022-12-15T07:49:12.808Z,21.84
2022-12-15T07:51:41.005Z,21.86
2022-12-15T07:54:10.136Z,21.81
2022-12-15T07:56:39.634Z,21.86
2022-12-15T07:59:07.575Z,21.79
2022-12-15T08:01:35.307Z,21.58
2022-12-15T08:04:03.520Z,21.83
2022-12-15T08:06:31.537Z,21.80
2022-12-15T08:08:59.081Z,21.91
2022-12-15T08:11:26.517Z,21.72
2022-12-15T08:14:04.334Z,21.82
2022-12-15T08:16:33.220Z,21.86
2022-12-15T08:19:00.699Z,21.86
2022-12-15T08:21:28.121Z,21.80
2022-12-15T08:23:55.706Z,21.70
2022-12-15T08:26:28.476Z,21.83
2022-12-15T08:29:24.520Z,21.68
2022-12-15T08:31:49.305Z,21.73
2022-12-15T08:34:17.458Z,21.78
2022-12-15T08:36:45.065Z,21.85
2022-12-15T08:39:12.633Z,21.78
2022-12-15T08:41:40.313Z,21.90
2022-12-15T08:44:09.307Z,21.75
2022-12-15T08:46:36.846Z,21.82
2022-12-15T08:49:04.736Z,21.82
2022-12-15T08:51:33.343Z,21.75
2022-12-15T08:54:01.373Z,21.78
2022-12-15T08:56:29.446Z,21.75
2022-12-15T08:58:58.113Z,21.77
2022-12-15T09:01:29.359Z,21.80
2022-12-15T09:03:57.902Z,21.84
2022-12-15T09:06:26.982Z,21.81
2022-12-15T09:08:55.475Z,21.82
2022-12-15T09:11:22.985Z,21.81
2022-12-15T09:13:50.494Z,21.79
2022-12-15T09:16:18.966Z,21.72
2022-12-15T09:18:50.273Z,21.85
2022-12-15T09:21:18.785Z,21.89
2022-12-15T09:23:48.805Z,21.88
2022-12-15T09:26:16.296Z,21.93
2022-12-15T09:28:44.186Z,21.89
2022-12-15T09:31:20.291Z,21.88
2022-12-15T09:33:51.170Z,21.93
2022-12-15T09:36:19.103Z,21.93
2022-12-15T09:38:46.573Z,21.81
2022-12-15T09:41:23.640Z,21.93
2022-12-15T09:43:56.408Z,22.00
2022-12-15T09:46:30.944Z,21.95
2022-12-15T09:49:04.211Z,21.98
2022-12-15T09:51:40.080Z,21.96
2022-12-15T09:54:10.787Z,22.00
2022-12-15T09:56:44.498Z,22.00
2022-12-15T09:59:31.474Z,21.93
2022-12-15T10:02:17.746Z,21.94
2022-12-15T10:04:53.451Z,21.97
2022-12-15T10:07:28.134Z,21.92
2022-12-15T10:09:56.027Z,21.89
2022-12-15T10:12:26.813Z,21.89
2022-12-15T10:15:05.029Z,21.58
2022-12-15T10:17:41.500Z,21.80
2022-12-15T10:20:17.474Z,21.82
2022-12-15T10:22:45.604Z,21.85
2022-12-15T10:25:27.456Z,21.94
2022-12-15T10:28:06.634Z,21.99
2022-12-15T10:30:35.332Z,21.90
2022-12-15T10:33:10.621Z,21.94
2022-12-15T10:35:40.139Z,21.90
2022-12-15T10:38:21.781Z,21.96
2022-12-15T10:40:51.376Z,21.94
2022-12-15T10:43:27.599Z,22.02
2022-12-15T10:46:04.956Z,21.99
2022-12-15T10:48:32.566Z,22.07
2022-12-15T10:51:16.849Z,21.99
2022-12-15T10:53:50.334Z,21.91
2022-12-15T10:56:26.107Z,21.89
2022-12-15T10:59:00.614Z,21.97
2022-12-15T11:01:29.226Z,21.91
2022-12-15T11:03:57.271Z,21.94
2022-12-15T11:06:29.443Z,21.93
2022-12-15T11:09:07.431Z,21.82
2022-12-15T11:11:45.580Z,21.82
2022-12-15T11:14:43.025Z,21.76
2022-12-15T11:17:15.872Z,21.70
2022-12-15T11:19:52.188Z,21.45
2022-12-15T11:22:28.965Z,21.56
2022-12-15T11:25:01.660Z,21.54
2022-12-15T11:27:33.770Z,21.66
2022-12-15T11:30:12.934Z,21.67
2022-12-15T11:32:43.479Z,21.68
2022-12-15T11:35:13.681Z,21.75
2022-12-15T11:37:42.810Z,21.71
2022-12-15T11:40:23.681Z,21.71
2022-12-15T11:43:06.819Z,21.75
2022-12-15T11:45:46.396Z,21.75
2022-12-15T11:48:18.818Z,21.72
2022-12-15T11:50:53.758Z,21.78
2022-12-15T11:53:47.280Z,21.76
2022-12-15T11:56:26.738Z,21.79
2022-12-15T11:59:26.511Z,21.80
2022-12-15T12:02:11.039Z,21.76
2022-12-15T12:04:51.810Z,21.90
2022-12-15T12:07:28.976Z,21.84
2022-12-15T12:10:08.352Z,21.71
2022-12-15T12:12:45.038Z,21.36
2022-12-15T12:15:24.904Z,21.75
2022-12-15T12:17:59.384Z,21.75
2022-12-15T12:20:34.523Z,21.17
2022-12-15T12:23:05.848Z,20.56
2022-12-15T12:25:40.229Z,20.93
2022-12-15T12:28:16.418Z,21.19
2022-12-15T12:30:50.476Z,21.25
2022-12-15T12:33:31.634Z,21.33
2022-12-15T12:36:07.379Z,21.47
2022-12-15T12:38:40.994Z,21.58
2022-12-15T12:41:16.624Z,21.70
2022-12-15T12:43:51.712Z,21.78
2022-12-15T12:46:23.830Z,21.84
2022-12-15T12:48:59.601Z,21.89
2022-12-15T12:51:30.612Z,21.83
2022-12-15T12:53:59.368Z,21.87
2022-12-15T12:56:35.171Z,21.80
2022-12-15T12:59:04.926Z,21.70
2022-12-15T13:01:32.643Z,21.59
2022-12-15T13:04:12.668Z,21.73
2022-12-15T13:07:01.365Z,21.73
2022-12-15T13:10:01.079Z,21.78
2022-12-15T13:12:53.908Z,21.76
2022-12-15T13:15:38.388Z,21.80
2022-12-15T13:18:13.804Z,21.79
2022-12-15T13:20:44.279Z,21.72
2022-12-15T13:23:36.780Z,21.76
2022-12-15T13:26:14.707Z,21.74
2022-12-15T13:28:50.522Z,21.78
2022-12-15T13:31:43.705Z,21.87
2022-12-15T13:34:23.073Z,21.81
2022-12-15T13:37:26.727Z,21.76
2022-12-15T13:39:57.636Z,21.73
2022-12-15T13:42:36.218Z,21.77
2022-12-15T13:45:38.930Z,21.78
2022-12-15T13:48:17.666Z,21.82
2022-12-15T13:50:51.765Z,21.77
2022-12-15T13:53:23.237Z,21.70
2022-12-15T13:55:59.409Z,21.87
2022-12-15T13:58:31.754Z,21.73
2022-12-15T14:00:59.372Z,21.81
2022-12-15T14:03:26.983Z,21.82
2022-12-15T14:05:56.614Z,21.79
2022-12-15T14:08:29.605Z,21.79
2022-12-15T14:11:00.177Z,21.76
2022-12-15T14:13:30.787Z,21.81
2022-12-15T14:16:04.004Z,21.90
2022-12-15T14:18:33.541Z,21.81
2022-12-15T14:21:02.253Z,21.75
2022-12-15T14:23:41.536Z,21.70
2022-12-15T14:26:12.487Z,21.76
2022-12-15T14:28:42.219Z,21.81
2022-12-15T14:31:16.766Z,21.66
2022-12-15T14:33:46.708Z,21.68
2022-12-15T14:36:20.708Z,21.79
2022-12-15T14:38:53.114Z,21.80
2022-12-15T14:41:23.766Z,21.68
2022-12-15T14:44:37.063Z,21.73
2022-12-15T14:46:46.576Z,21.73
2022-12-15T14:49:20.011Z,21.79
2022-12-15T14:51:51.408Z,21.65
2022-12-15T14:54:32.953Z,21.63
2022-12-15T14:57:02.323Z,21.67
2022-12-15T14:59:34.433Z,21.76
2022-12-15T15:02:13.927Z,21.72
2022-12-15T15:04:41.167Z,21.68
2022-12-15T15:07:17.042Z,21.55
2022-12-15T15:09:46.914Z,19.90
2022-12-15T15:12:17.193Z,21.10
2022-12-15T15:14:47.121Z,21.18
2022-12-15T15:17:24.330Z,21.20
2022-12-15T15:19:55.113Z,21.22
2022-12-15T15:22:37.648Z,21.21
2022-12-15T15:28:20.944Z,21.49
2022-12-15T15:30:50.040Z,21.54
2022-12-15T15:33:18.193Z,21.40
2022-12-15T15:35:49.649Z,21.55
2022-12-15T15:38:22.504Z,21.40
2022-12-15T15:40:51.581Z,21.44
2022-12-15T15:43:20.886Z,21.46
2022-12-15T15:45:49.452Z,21.42
2022-12-15T15:48:23.886Z,21.45
2022-12-15T15:50:51.641Z,21.47
2022-12-15T15:53:22.622Z,21.42
2022-12-15T15:55:52.870Z,21.51
2022-12-15T15:58:22.360Z,21.48
2022-12-15T16:00:50.294Z,21.42
2022-12-15T16:03:18.187Z,21.38
2022-12-15T16:05:46.052Z,21.43
2022-12-15T16:08:17.478Z,21.46
2022-12-15T16:10:48.134Z,21.46
2022-12-15T16:13:22.396Z,21.41
2022-12-15T16:15:55.064Z,21.37
2022-12-15T16:18:22.589Z,21.51
2022-12-15T16:20:53.210Z,21.70
2022-12-15T16:23:23.501Z,21.56
2022-12-15T16:25:53.078Z,21.60
2022-12-15T16:28:22.801Z,21.50
2022-12-15T16:30:50.515Z,21.52
2022-12-15T16:33:20.009Z,21.53
2022-12-15T16:35:49.551Z,21.73
2022-12-15T16:38:23.270Z,21.84
2022-12-15T16:40:50.873Z,21.65
2022-12-15T16:43:21.721Z,21.70
2022-12-15T16:45:49.793Z,21.59
2022-12-15T16:48:19.429Z,21.62
2022-12-15T16:50:49.613Z,21.62
2022-12-15T16:53:22.158Z,21.56
2022-12-15T16:55:53.666Z,21.58
2022-12-15T16:58:22.323Z,21.61
2022-12-15T17:00:49.766Z,21.56
2022-12-15T17:03:20.228Z,21.54
2022-12-15T17:05:49.937Z,21.59
2022-12-15T17:08:20.823Z,21.63
2022-12-15T17:10:49.437Z,21.60
2022-12-15T17:13:28.514Z,21.58
2022-12-15T17:15:59.474Z,21.66
2022-12-15T17:18:28.957Z,21.59
2022-12-15T17:21:02.555Z,21.63
2022-12-15T17:23:31.253Z,21.59
2022-12-15T17:26:22.660Z,21.57
2022-12-15T17:28:47.626Z,21.63
2022-12-15T17:31:18.041Z,21.59
2022-12-15T17:33:47.252Z,21.56
2022-12-15T17:36:16.791Z,21.54
2022-12-15T17:38:44.348Z,21.57
2022-12-15T17:41:29.085Z,21.61
2022-12-15T17:46:48.656Z,21.66
2022-12-15T17:49:18.083Z,21.61
2022-12-15T17:51:46.965Z,21.63
2022-12-15T17:54:17.078Z,21.60
2022-12-15T17:56:46.571Z,21.59
2022-12-15T17:59:15.438Z,21.67
2022-12-15T18:01:43.090Z,21.64
2022-12-15T18:04:10.725Z,21.59
2022-12-15T18:06:41.173Z,21.62
2022-12-15T18:09:15.765Z,21.56
2022-12-15T18:11:43.286Z,21.61
2022-12-15T18:14:13.386Z,21.57
2022-12-15T18:16:40.988Z,21.58
2022-12-15T18:19:08.510Z,21.61
2022-12-15T18:21:36.429Z,21.69
2022-12-15T18:24:12.183Z,21.61
2022-12-15T18:26:39.615Z,21.63
2022-12-15T18:29:12.474Z,21.60
2022-12-15T18:31:40.913Z,21.63
2022-12-15T18:34:12.797Z,21.59
2022-12-15T18:36:40.372Z,21.68
2022-12-15T18:39:20.757Z,21.65
2022-12-15T18:41:48.846Z,21.72
2022-12-15T18:44:22.020Z,21.66
2022-12-15T18:46:50.830Z,21.61
2022-12-15T18:49:19.789Z,21.64
2022-12-15T18:51:47.451Z,21.59
2022-12-15T18:54:19.480Z,21.65
2022-12-15T18:56:47.030Z,21.71
2022-12-15T18:59:15.893Z,21.73
2022-12-15T19:01:44.001Z,21.68
2022-12-15T19:04:12.019Z,21.70
2022-12-15T19:06:39.517Z,21.68
2022-12-15T19:09:13.614Z,21.70
2022-12-15T19:11:44.802Z,21.71
2022-12-15T19:14:14.434Z,21.65
2022-12-15T19:16:41.972Z,21.70
2022-12-15T19:19:17.028Z,21.72
2022-12-15T19:21:44.925Z,21.72
2022-12-15T19:24:15.508Z,21.74
2022-12-15T19:26:44.426Z,21.76
2022-12-15T19:29:17.302Z,21.74
2022-12-15T19:31:45.391Z,21.75
2022-12-15T19:34:13.099Z,21.80
2022-12-15T19:36:40.908Z,21.75
2022-12-15T19:39:18.091Z,21.69
2022-12-15T19:41:47.157Z,21.78
2022-12-15T19:44:15.169Z,21.73
2022-12-15T19:46:43.281Z,21.73
2022-12-15T19:49:10.833Z,21.75
2022-12-15T19:51:39.783Z,21.77
2022-12-15T19:54:07.202Z,21.73
2022-12-15T19:56:34.721Z,21.75
2022-12-15T19:59:03.614Z,21.76
2022-12-15T20:01:31.117Z,21.78
2022-12-15T20:03:58.623Z,21.78
2022-12-15T20:06:27.365Z,21.78
2022-12-15T20:08:56.099Z,21.73
2022-12-15T20:11:25.369Z,21.72
2022-12-15T20:13:53.714Z,21.73
2022-12-15T20:16:24.047Z,21.68
2022-12-15T20:18:53.645Z,21.62
2022-12-15T20:21:22.931Z,21.67
2022-12-15T20:23:53.717Z,21.65
2022-12-15T20:26:21.650Z,21.61
2022-12-15T20:28:49.222Z,21.63
2022-12-15T20:31:18.378Z,21.59
2022-12-15T20:33:48.060Z,21.57
2022-12-15T20:36:17.899Z,21.55
2022-12-15T20:38:45.878Z,21.53
2022-12-15T20:41:17.261Z,21.46
2022-12-15T20:43:45.421Z,21.47
2022-12-15T20:46:15.392Z,21.44
2022-12-15T20:48:43.737Z,21.49
2022-12-15T20:51:21.790Z,21.46
2022-12-15T20:53:49.630Z,21.49
2022-12-15T20:56:18.094Z,21.47
2022-12-15T20:58:45.529Z,21.51
2022-12-15T21:01:20.999Z,21.51
2022-12-15T21:03:50.502Z,21.49
2022-12-15T21:06:21.338Z,21.54
2022-12-15T21:08:48.820Z,21.56
2022-12-15T21:11:18.596Z,21.52
2022-12-15T21:13:48.577Z,21.47
2022-12-15T21:16:16.879Z,21.48
2022-12-15T21:21:35.383Z,21.51
2022-12-15T21:24:11.387Z,21.58
2022-12-15T21:26:38.897Z,21.52
2022-12-15T21:29:12.446Z,21.60
2022-12-15T21:31:40.003Z,21.63
2022-12-15T21:34:07.997Z,21.62
2022-12-15T21:36:38.565Z,21.69
2022-12-15T21:39:07.654Z,21.70
2022-12-15T21:41:35.706Z,21.71
2022-12-15T21:44:03.218Z,21.70
2022-12-15T21:46:30.704Z,21.68
2022-12-15T21:48:58.183Z,21.70
2022-12-15T21:51:27.782Z,21.71
2022-12-15T21:53:56.664Z,21.72
2022-12-15T21:56:24.094Z,21.71
2022-12-15T21:58:51.593Z,21.70
2022-12-15T22:01:22.748Z,21.69
2022-12-15T22:03:53.328Z,21.73
2022-12-15T22:06:23.966Z,21.70
2022-12-15T22:08:52.701Z,21.76
2022-12-15T22:11:24.898Z,21.68
2022-12-15T22:13:55.208Z,21.71
2022-12-15T22:16:23.571Z,21.70
2022-12-15T22:18:53.661Z,21.72
2022-12-15T22:21:22.756Z,21.74
2022-12-15T22:23:50.819Z,21.73
2022-12-15T22:26:23.095Z,21.71
2022-12-15T22:28:51.856Z,21.68
2022-12-15T22:31:19.419Z,21.74
2022-12-15T22:33:46.949Z,21.72
2022-12-15T22:36:14.412Z,21.69
2022-12-15T22:38:41.846Z,21.72
2022-12-15T22:41:17.395Z,21.67
2022-12-15T22:43:49.701Z,21.70
2022-12-15T22:46:17.907Z,21.70
2022-12-15T22:48:47.286Z,21.73
2022-12-15T22:51:16.977Z,21.68
2022-12-15T22:53:44.237Z,21.70
2022-12-15T22:56:21.862Z,21.69
2022-12-15T22:58:54.320Z,21.64
2022-12-15T23:01:22.025Z,21.71
2022-12-15T23:03:51.624Z,21.71
2022-12-15T23:06:19.781Z,21.56
2022-12-15T23:08:51.142Z,21.70
2022-12-15T23:11:23.511Z,21.70
2022-12-15T23:13:52.416Z,21.67
2022-12-15T23:16:22.428Z,21.63
2022-12-15T23:19:02.411Z,21.67
2022-12-15T23:21:29.885Z,21.69
2022-12-15T23:23:57.361Z,21.63
2022-12-15T23:26:24.802Z,21.64
2022-12-15T23:28:55.253Z,21.65
2022-12-15T23:31:23.345Z,21.55
2022-12-15T23:33:52.089Z,21.58
2022-12-15T23:36:19.894Z,21.61
2022-12-15T23:38:47.540Z,21.61
2022-12-15T23:41:16.514Z,21.61
2022-12-15T23:43:44.695Z,21.61
2022-12-15T23:46:14.430Z,21.60
2022-12-15T23:48:43.384Z,21.58
2022-12-15T23:51:12.963Z,21.63
2022-12-15T23:53:40.361Z,21.61
2022-12-15T23:56:10.789Z,21.62
2022-12-15T23:58:39.679Z,21.61
